"WATCHING THE WEATHER TO PROTECT LIFE AND PROPERTY"


THERE ARE CURRENTLY NO WATCHES NOR WARNINGS


Aviation
Satellite (InfraRed)


KFLL 140553Z 11008KT 10SM SCT015 SCT025 29/26 A3015 RMK AO2 SLP206 T02890261 10300 20289 58005 $
KMCO 140553Z 00000KT 10SM FEW150 SCT250 25/24 A3018 RMK AO2 SLP217 T02500239 10278 20244 58002
KMIA 140553Z 11006KT 10SM SCT019 BKN250 29/26 A3015 RMK AO2 SLP208 OCNL LTGIC DSNT SE-SW CB DSNT SE-SW T02940261 10306 20294 58005
KTPA 140553Z 00000KT 10SM SCT280 27/24 A3018 RMK AO2 SLP218 T02670239 10289 20267 50007
MDPP 140600Z 00000KT 9999 TS FEW017CB SCT017 SCT300 25/24 1017 CB/NE/SE/N
MDSD 140600Z 00000KT 9999 SCT016 BKN070 26/25 Q1017
MKJS 140600Z 13006KT 9999 FEW020 28/26 Q1015
MTPP 132200Z VRB08KT 8000 SCT029CB SCT200 35/22 Q1014 A2996 RMK
MUHA 140550Z 07004KT 9000 FEW030 26/26 Q1020
MYNN 140600Z 11007KT 9999 SCT025 BKN200 29/25 A3015
TAPA 140506Z 09006KT 9999 VCSH FEW014CB SCT018 25/23 Q1017 RESHRA NOSIG
TFFF 140600Z AUTO 10007KT 9999 FEW023 SCT030 BKN049 28/25 Q1015 NOSIG
TFFR 140600Z AUTO 07006KT 040V100 8000 +RA SCT017/// BKN026/// BKN042/// ///CB 27/26 Q1015 TEMPO VRB15G30KT 4000 SHRA
TIST 140553Z 08008KT 10SM OVC021 28/26 A3002 RMK AO2 SLP167 T02780256 10289 20278 56022 $
TISX 140553Z AUTO 06006KT 9SM OVC011 28/26 A3003 RMK AO2 SLP166 60000 T02830256 10294 20283 58022 $
TJSJ 140556Z 00000KT 10SM FEW021 SCT026 28/26 A3004 RMK AO2 SLP173 60000 T02830261 10300 20283 58018 $
TKPK 140100Z 03009KT 9999 BKN016 29/26 Q1018
TNCA 140600Z 09013KT 9999 BKN017 29/25 Q1014 NOSIG
TNCB 140555Z AUTO 08012KT 050V110 9999 FEW016/// 29/25 Q1014
TNCC 140500Z 09011KT 060V120 9999 SCT017 29/26 Q1014 NOSIG=
TNCE 140555Z AUTO 06010KT 020V090 //// // ///////// 28/26 Q1016 RE//
TNCM 140500Z 05005KT 9999 SCT016 29/28 Q1019
TQPF 132300Z 07007KT 9999 FEW017 29/27 Q1018
TUPJ 140200Z 07007KT 10SM FEW021 29/26 A3009 RMK Q1019 VIS16KM